sensor_id;sensor_type;location;lat;lon;timestamp;pressure;altitude;pressure_sealevel;temperature
74485;BMP280;62942;52.462;10.846;2022-09-09T00:00:26;100200;;;
74485;BMP280;62942;52.462;10.846;2022-09-09T00:01:37;100210;;;
74485;BMP280;62942;52.462;10.846;2022-09-09T00:02:48;100200;;;
74485;BMP280;62942;52.462;10.846;2022-09-09T00:03:57;100210;;;
74485;BMP280;62942;52.462;10.846;2022-09-09T00:04:58;100210;;;
74485;BMP280;62942;52.462;10.846;2022-09-09T00:06:07;100210;;;
74485;BMP280;62942;52.462;10.846;2022-09-09T00:07:09;100210;;;
74485;BMP280;62942;52.462;10.846;2022-09-09T00:08:18;100210;;;
74485;BMP280;62942;52.462;10.846;2022-09-09T00:09:26;100210;;;
74485;BMP280;62942;52.462;10.846;2022-09-09T00:10:37;100210;;;
74485;BMP280;62942;52.462;10.846;2022-09-09T00:11:39;100210;;;
74485;BMP280;62942;52.462;10.846;2022-09-09T00:12:36;100210;;;
74485;BMP280;62942;52.462;10.846;2022-09-09T00:13:37;100210;;;
74485;BMP280;62942;52.462;10.846;2022-09-09T00:14:37;100210;;;
74485;BMP280;62942;52.462;10.846;2022-09-09T00:15:48;100200;;;
74485;BMP280;62942;52.462;10.846;2022-09-09T00:16:58;100200;;;
74485;BMP280;62942;52.462;10.846;2022-09-09T00:17:56;100210;;;
74485;BMP280;62942;52.462;10.846;2022-09-09T00:19:07;100210;;;
74485;BMP280;62942;52.462;10.846;2022-09-09T00:20:09;100210;;;
74485;BMP280;62942;52.462;10.846;2022-09-09T00:21:16;100200;;;
74485;BMP280;62942;52.462;10.846;2022-09-09T00:22:27;100210;;;
74485;BMP280;62942;52.462;10.846;2022-09-09T00:23:37;100200;;;
74485;BMP280;62942;52.462;10.846;2022-09-09T00:24:38;100210;;;
74485;BMP280;62942;52.462;10.846;2022-09-09T00:25:47;100200;;;
74485;BMP280;62942;52.462;10.846;2022-09-09T00:26:47;100210;;;
74485;BMP280;62942;52.462;10.846;2022-09-09T00:27:56;100200;;;
74485;BMP280;62942;52.462;10.846;2022-09-09T00:29:09;100200;;;
74485;BMP280;62942;52.462;10.846;2022-09-09T00:30:16;100200;;;
74485;BMP280;62942;52.462;10.846;2022-09-09T00:31:18;100200;;;
74485;BMP280;62942;52.462;10.846;2022-09-09T00:32:27;100210;;;
74485;BMP280;62942;52.462;10.846;2022-09-09T00:33:36;100210;;;
74485;BMP280;62942;52.462;10.846;2022-09-09T00:34:36;100210;;;
74485;BMP280;62942;52.462;10.846;2022-09-09T00:35:47;100210;;;
74485;BMP280;62942;52.462;10.846;2022-09-09T00:36:46;100200;;;
74485;BMP280;62942;52.462;10.846;2022-09-09T00:37:56;100210;;;
74485;BMP280;62942;52.462;10.846;2022-09-09T00:39:08;100210;;;
74485;BMP280;62942;52.462;10.846;2022-09-09T00:40:08;100210;;;
74485;BMP280;62942;52.462;10.846;2022-09-09T00:41:18;100180;;;
74485;BMP280;62942;52.462;10.846;2022-09-09T00:42:26;100180;;;
74485;BMP280;62942;52.462;10.846;2022-09-09T00:43:36;100190;;;
74485;BMP280;62942;52.462;10.846;2022-09-09T00:44:36;100180;;;
74485;BMP280;62942;52.462;10.846;2022-09-09T00:45:57;100180;;;
74485;BMP280;62942;52.462;10.846;2022-09-09T00:46:58;100190;;;
74485;BMP280;62942;52.462;10.846;2022-09-09T00:48:06;100200;;;
74485;BMP280;62942;52.462;10.846;2022-09-09T00:49:08;100190;;;
74485;BMP280;62942;52.462;10.846;2022-09-09T00:50:10;100190;;;
74485;BMP280;62942;52.462;10.846;2022-09-09T00:51:17;100200;;;
74485;BMP280;62942;52.462;10.846;2022-09-09T00:52:20;100200;;;
74485;BMP280;62942;52.462;10.846;2022-09-09T00:53:19;100190;;;
74485;BMP280;62942;52.462;10.846;2022-09-09T00:54:28;100190;;;
74485;BMP280;62942;52.462;10.846;2022-09-09T00:55:27;100200;;;
74485;BMP280;62942;52.462;10.846;2022-09-09T00:56:36;100190;;;
74485;BMP280;62942;52.462;10.846;2022-09-09T00:57:46;100190;;;
74485;BMP280;62942;52.462;10.846;2022-09-09T00:58:57;100190;;;
74485;BMP280;62942;52.462;10.846;2022-09-09T00:59:57;100200;;;
74485;BMP280;62942;52.462;10.846;2022-09-09T01:01:08;100190;;;
74485;BMP280;62942;52.462;10.846;2022-09-09T01:02:19;100200;;;
74485;BMP280;62942;52.462;10.846;2022-09-09T01:03:29;100190;;;
74485;BMP280;62942;52.462;10.846;2022-09-09T01:04:27;100190;;;
74485;BMP280;62942;52.462;10.846;2022-09-09T01:05:27;100190;;;
74485;BMP280;62942;52.462;10.846;2022-09-09T01:06:36;100190;;;
74485;BMP280;62942;52.462;10.846;2022-09-09T01:07:47;100200;;;
74485;BMP280;62942;52.462;10.846;2022-09-09T01:09:00;100200;;;
74485;BMP280;62942;52.462;10.846;2022-09-09T01:09:56;100190;;;
74485;BMP280;62942;52.462;10.846;2022-09-09T01:11:06;100200;;;
74485;BMP280;62942;52.462;10.846;2022-09-09T01:12:16;100200;;;
74485;BMP280;62942;52.462;10.846;2022-09-09T01:13:26;100200;;;
74485;BMP280;62942;52.462;10.846;2022-09-09T01:14:29;100190;;;
74485;BMP280;62942;52.462;10.846;2022-09-09T01:15:36;100200;;;
74485;BMP280;62942;52.462;10.846;2022-09-09T01:16:36;100200;;;
74485;BMP280;62942;52.462;10.846;2022-09-09T01:17:37;100200;;;
74485;BMP280;62942;52.462;10.846;2022-09-09T01:18:46;100200;;;
74485;BMP280;62942;52.462;10.846;2022-09-09T01:19:58;100200;;;
74485;BMP280;62942;52.462;10.846;2022-09-09T01:21:08;100200;;;
74485;BMP280;62942;52.462;10.846;2022-09-09T01:22:18;100200;;;
74485;BMP280;62942;52.462;10.846;2022-09-09T01:23:30;100200;;;
74485;BMP280;62942;52.462;10.846;2022-09-09T01:24:27;100190;;;
74485;BMP280;62942;52.462;10.846;2022-09-09T01:25:56;100200;;;
74485;BMP280;62942;52.462;10.846;2022-09-09T01:26:46;100200;;;
74485;BMP280;62942;52.462;10.846;2022-09-09T01:27:46;100200;;;
74485;BMP280;62942;52.462;10.846;2022-09-09T01:28:56;100200;;;
74485;BMP280;62942;52.462;10.846;2022-09-09T01:29:56;100190;;;
74485;BMP280;62942;52.462;10.846;2022-09-09T01:30:56;100200;;;
74485;BMP280;62942;52.462;10.846;2022-09-09T01:32:37;100200;;;
74485;BMP280;62942;52.462;10.846;2022-09-09T01:33:17;100190;;;
74485;BMP280;62942;52.462;10.846;2022-09-09T01:34:26;100200;;;
74485;BMP280;62942;52.462;10.846;2022-09-09T01:35:39;100200;;;
74485;BMP280;62942;52.462;10.846;2022-09-09T01:36:47;100200;;;
74485;BMP280;62942;52.462;10.846;2022-09-09T01:37:56;100190;;;
74485;BMP280;62942;52.462;10.846;2022-09-09T01:38:56;100200;;;
74485;BMP280;62942;52.462;10.846;2022-09-09T01:40:06;100200;;;
74485;BMP280;62942;52.462;10.846;2022-09-09T01:41:16;100200;;;
74485;BMP280;62942;52.462;10.846;2022-09-09T01:42:26;100200;;;
74485;BMP280;62942;52.462;10.846;2022-09-09T01:43:36;100200;;;
74485;BMP280;62942;52.462;10.846;2022-09-09T01:44:46;100200;;;
74485;BMP280;62942;52.462;10.846;2022-09-09T01:45:56;100200;;;
74485;BMP280;62942;52.462;10.846;2022-09-09T01:47:06;100200;;;
74485;BMP280;62942;52.462;10.846;2022-09-09T01:48:06;100200;;;
74485;BMP280;62942;52.462;10.846;2022-09-09T01:49:16;100190;;;
74485;BMP280;62942;52.462;10.846;2022-09-09T01:50:26;100200;;;
74485;BMP280;62942;52.462;10.846;2022-09-09T01:51:36;100190;;;
74485;BMP280;62942;52.462;10.846;2022-09-09T01:52:46;100190;;;
74485;BMP280;62942;52.462;10.846;2022-09-09T01:53:46;100200;;;
74485;BMP280;62942;52.462;10.846;2022-09-09T01:54:56;100200;;;
74485;BMP280;62942;52.462;10.846;2022-09-09T01:55:58;100200;;;
74485;BMP280;62942;52.462;10.846;2022-09-09T01:57:06;100200;;;
74485;BMP280;62942;52.462;10.846;2022-09-09T01:58:10;100200;;;
74485;BMP280;62942;52.462;10.846;2022-09-09T01:59:49;100190;;;
74485;BMP280;62942;52.462;10.846;2022-09-09T02:00:26;100200;;;
74485;BMP280;62942;52.462;10.846;2022-09-09T02:01:39;100200;;;
74485;BMP280;62942;52.462;10.846;2022-09-09T02:02:36;100190;;;
74485;BMP280;62942;52.462;10.846;2022-09-09T02:03:47;100200;;;
74485;BMP280;62942;52.462;10.846;2022-09-09T02:04:56;100190;;;
74485;BMP280;62942;52.462;10.846;2022-09-09T02:05:59;100200;;;
74485;BMP280;62942;52.462;10.846;2022-09-09T02:07:08;100200;;;
74485;BMP280;62942;52.462;10.846;2022-09-09T02:08:06;100190;;;
74485;BMP280;62942;52.462;10.846;2022-09-09T02:09:16;100200;;;
74485;BMP280;62942;52.462;10.846;2022-09-09T02:10:28;100200;;;
74485;BMP280;62942;52.462;10.846;2022-09-09T02:11:36;100200;;;
74485;BMP280;62942;52.462;10.846;2022-09-09T02:12:36;100200;;;
74485;BMP280;62942;52.462;10.846;2022-09-09T02:13:46;100200;;;
74485;BMP280;62942;52.462;10.846;2022-09-09T02:14:46;100190;;;
74485;BMP280;62942;52.462;10.846;2022-09-09T02:15:56;100200;;;
74485;BMP280;62942;52.462;10.846;2022-09-09T02:16:56;100200;;;
74485;BMP280;62942;52.462;10.846;2022-09-09T02:17:56;100200;;;
74485;BMP280;62942;52.462;10.846;2022-09-09T02:19:06;100200;;;
74485;BMP280;62942;52.462;10.846;2022-09-09T02:20:17;100190;;;
74485;BMP280;62942;52.462;10.846;2022-09-09T02:21:26;100190;;;
74485;BMP280;62942;52.462;10.846;2022-09-09T02:22:36;100190;;;
74485;BMP280;62942;52.462;10.846;2022-09-09T02:23:46;100190;;;
74485;BMP280;62942;52.462;10.846;2022-09-09T02:24:46;100190;;;
74485;BMP280;62942;52.462;10.846;2022-09-09T02:25:56;100190;;;
74485;BMP280;62942;52.462;10.846;2022-09-09T02:26:56;100190;;;
74485;BMP280;62942;52.462;10.846;2022-09-09T02:28:06;100190;;;
74485;BMP280;62942;52.462;10.846;2022-09-09T02:29:07;100190;;;
74485;BMP280;62942;52.462;10.846;2022-09-09T02:30:16;100190;;;
74485;BMP280;62942;52.462;10.846;2022-09-09T02:31:25;100190;;;
74485;BMP280;62942;52.462;10.846;2022-09-09T02:32:26;100190;;;
74485;BMP280;62942;52.462;10.846;2022-09-09T02:33:37;100180;;;
74485;BMP280;62942;52.462;10.846;2022-09-09T02:34:38;100190;;;
74485;BMP280;62942;52.462;10.846;2022-09-09T02:35:45;100180;;;
74485;BMP280;62942;52.462;10.846;2022-09-09T02:36:56;100190;;;
74485;BMP280;62942;52.462;10.846;2022-09-09T02:38:06;100180;;;
74485;BMP280;62942;52.462;10.846;2022-09-09T02:39:16;100180;;;
74485;BMP280;62942;52.462;10.846;2022-09-09T02:40:25;100180;;;
74485;BMP280;62942;52.462;10.846;2022-09-09T02:41:27;100180;;;
74485;BMP280;62942;52.462;10.846;2022-09-09T02:42:38;100180;;;
74485;BMP280;62942;52.462;10.846;2022-09-09T02:43:36;100180;;;
74485;BMP280;62942;52.462;10.846;2022-09-09T02:44:46;100180;;;
74485;BMP280;62942;52.462;10.846;2022-09-09T02:45:57;100180;;;
74485;BMP280;62942;52.462;10.846;2022-09-09T02:47:09;100180;;;
74485;BMP280;62942;52.462;10.846;2022-09-09T02:48:08;100180;;;
74485;BMP280;62942;52.462;10.846;2022-09-09T02:49:16;100180;;;
74485;BMP280;62942;52.462;10.846;2022-09-09T02:50:26;100180;;;
74485;BMP280;62942;52.462;10.846;2022-09-09T02:51:37;100180;;;
74485;BMP280;62942;52.462;10.846;2022-09-09T02:52:47;100180;;;
74485;BMP280;62942;52.462;10.846;2022-09-09T02:53:57;100180;;;
74485;BMP280;62942;52.462;10.846;2022-09-09T02:55:07;100180;;;
74485;BMP280;62942;52.462;10.846;2022-09-09T02:56:16;100180;;;
74485;BMP280;62942;52.462;10.846;2022-09-09T02:57:27;100190;;;
74485;BMP280;62942;52.462;10.846;2022-09-09T02:58:35;100170;;;
74485;BMP280;62942;52.462;10.846;2022-09-09T02:59:46;100180;;;
74485;BMP280;62942;52.462;10.846;2022-09-09T03:00:56;100190;;;
74485;BMP280;62942;52.462;10.846;2022-09-09T03:02:06;100180;;;
74485;BMP280;62942;52.462;10.846;2022-09-09T03:03:06;100190;;;
74485;BMP280;62942;52.462;10.846;2022-09-09T03:04:16;100180;;;
74485;BMP280;62942;52.462;10.846;2022-09-09T03:05:16;100180;;;
74485;BMP280;62942;52.462;10.846;2022-09-09T03:06:25;100190;;;
74485;BMP280;62942;52.462;10.846;2022-09-09T03:07:35;100180;;;
74485;BMP280;62942;52.462;10.846;2022-09-09T03:08:35;100190;;;
74485;BMP280;62942;52.462;10.846;2022-09-09T03:09:45;100190;;;
74485;BMP280;62942;52.462;10.846;2022-09-09T03:10:57;100180;;;
74485;BMP280;62942;52.462;10.846;2022-09-09T03:12:05;100180;;;
74485;BMP280;62942;52.462;10.846;2022-09-09T03:13:06;100190;;;
74485;BMP280;62942;52.462;10.846;2022-09-09T03:14:05;100190;;;
74485;BMP280;62942;52.462;10.846;2022-09-09T03:15:16;100190;;;
74485;BMP280;62942;52.462;10.846;2022-09-09T03:16:15;100190;;;
74485;BMP280;62942;52.462;10.846;2022-09-09T03:17:25;100190;;;
74485;BMP280;62942;52.462;10.846;2022-09-09T03:18:35;100190;;;
74485;BMP280;62942;52.462;10.846;2022-09-09T03:19:45;100190;;;
74485;BMP280;62942;52.462;10.846;2022-09-09T03:20:55;100200;;;
74485;BMP280;62942;52.462;10.846;2022-09-09T03:22:05;100190;;;
74485;BMP280;62942;52.462;10.846;2022-09-09T03:23:05;100190;;;
74485;BMP280;62942;52.462;10.846;2022-09-09T03:24:15;100190;;;
74485;BMP280;62942;52.462;10.846;2022-09-09T03:25:15;100190;;;
74485;BMP280;62942;52.462;10.846;2022-09-09T03:26:15;100190;;;
74485;BMP280;62942;52.462;10.846;2022-09-09T03:27:25;100190;;;
74485;BMP280;62942;52.462;10.846;2022-09-09T03:28:35;100190;;;
74485;BMP280;62942;52.462;10.846;2022-09-09T03:29:45;100190;;;
74485;BMP280;62942;52.462;10.846;2022-09-09T03:30:46;100190;;;
74485;BMP280;62942;52.462;10.846;2022-09-09T03:31:55;100190;;;
74485;BMP280;62942;52.462;10.846;2022-09-09T03:33:05;100190;;;
74485;BMP280;62942;52.462;10.846;2022-09-09T03:34:15;100190;;;
74485;BMP280;62942;52.462;10.846;2022-09-09T03:35:25;100190;;;
74485;BMP280;62942;52.462;10.846;2022-09-09T03:36:35;100190;;;
74485;BMP280;62942;52.462;10.846;2022-09-09T03:37:35;100200;;;
74485;BMP280;62942;52.462;10.846;2022-09-09T03:38:45;100190;;;
74485;BMP280;62942;52.462;10.846;2022-09-09T03:39:45;100190;;;
74485;BMP280;62942;52.462;10.846;2022-09-09T03:40:56;100190;;;
74485;BMP280;62942;52.462;10.846;2022-09-09T03:41:55;100200;;;
74485;BMP280;62942;52.462;10.846;2022-09-09T03:43:06;100200;;;
74485;BMP280;62942;52.462;10.846;2022-09-09T03:44:05;100190;;;
74485;BMP280;62942;52.462;10.846;2022-09-09T03:45:15;100180;;;
74485;BMP280;62942;52.462;10.846;2022-09-09T03:46:15;100200;;;
74485;BMP280;62942;52.462;10.846;2022-09-09T03:47:25;100200;;;
74485;BMP280;62942;52.462;10.846;2022-09-09T03:48:35;100200;;;
74485;BMP280;62942;52.462;10.846;2022-09-09T03:49:35;100190;;;
74485;BMP280;62942;52.462;10.846;2022-09-09T03:50:45;100190;;;
74485;BMP280;62942;52.462;10.846;2022-09-09T03:51:45;100180;;;
74485;BMP280;62942;52.462;10.846;2022-09-09T03:52:55;100200;;;
74485;BMP280;62942;52.462;10.846;2022-09-09T03:53:56;100190;;;
74485;BMP280;62942;52.462;10.846;2022-09-09T03:55:06;100200;;;
74485;BMP280;62942;52.462;10.846;2022-09-09T03:56:15;100200;;;
74485;BMP280;62942;52.462;10.846;2022-09-09T03:57:25;100200;;;
74485;BMP280;62942;52.462;10.846;2022-09-09T03:58:26;100200;;;
74485;BMP280;62942;52.462;10.846;2022-09-09T03:59:35;100200;;;
74485;BMP280;62942;52.462;10.846;2022-09-09T04:00:35;100200;;;
74485;BMP280;62942;52.462;10.846;2022-09-09T04:01:45;100200;;;
74485;BMP280;62942;52.462;10.846;2022-09-09T04:02:55;100200;;;
74485;BMP280;62942;52.462;10.846;2022-09-09T04:04:05;100190;;;
74485;BMP280;62942;52.462;10.846;2022-09-09T04:05:15;100200;;;
74485;BMP280;62942;52.462;10.846;2022-09-09T04:06:25;100200;;;
74485;BMP280;62942;52.462;10.846;2022-09-09T04:07:35;100200;;;
74485;BMP280;62942;52.462;10.846;2022-09-09T04:08:45;100200;;;
74485;BMP280;62942;52.462;10.846;2022-09-09T04:09:45;100200;;;
74485;BMP280;62942;52.462;10.846;2022-09-09T04:10:55;100190;;;
74485;BMP280;62942;52.462;10.846;2022-09-09T04:11:55;100200;;;
74485;BMP280;62942;52.462;10.846;2022-09-09T04:13:05;100200;;;
74485;BMP280;62942;52.462;10.846;2022-09-09T04:14:06;100200;;;
74485;BMP280;62942;52.462;10.846;2022-09-09T04:15:15;100200;;;
74485;BMP280;62942;52.462;10.846;2022-09-09T04:16:15;100200;;;
74485;BMP280;62942;52.462;10.846;2022-09-09T04:17:25;100200;;;
74485;BMP280;62942;52.462;10.846;2022-09-09T04:18:26;100210;;;
74485;BMP280;62942;52.462;10.846;2022-09-09T04:19:35;100200;;;
74485;BMP280;62942;52.462;10.846;2022-09-09T04:20:35;100200;;;
74485;BMP280;62942;52.462;10.846;2022-09-09T04:21:45;100190;;;
74485;BMP280;62942;52.462;10.846;2022-09-09T04:22:55;100190;;;
74485;BMP280;62942;52.462;10.846;2022-09-09T04:24:06;100200;;;
74485;BMP280;62942;52.462;10.846;2022-09-09T04:25:06;100210;;;
74485;BMP280;62942;52.462;10.846;2022-09-09T04:26:15;100200;;;
74485;BMP280;62942;52.462;10.846;2022-09-09T04:27:25;100200;;;
74485;BMP280;62942;52.462;10.846;2022-09-09T04:28:26;100200;;;
74485;BMP280;62942;52.462;10.846;2022-09-09T04:29:35;100200;;;
74485;BMP280;62942;52.462;10.846;2022-09-09T04:30:45;100200;;;
74485;BMP280;62942;52.462;10.846;2022-09-09T04:31:55;100200;;;
74485;BMP280;62942;52.462;10.846;2022-09-09T04:32:56;100200;;;
74485;BMP280;62942;52.462;10.846;2022-09-09T04:34:06;100200;;;
74485;BMP280;62942;52.462;10.846;2022-09-09T04:35:05;100200;;;
74485;BMP280;62942;52.462;10.846;2022-09-09T04:36:15;100210;;;
74485;BMP280;62942;52.462;10.846;2022-09-09T04:37:15;100200;;;
74485;BMP280;62942;52.462;10.846;2022-09-09T04:38:25;100210;;;
74485;BMP280;62942;52.462;10.846;2022-09-09T04:39:35;100200;;;
74485;BMP280;62942;52.462;10.846;2022-09-09T04:40:46;100190;;;
74485;BMP280;62942;52.462;10.846;2022-09-09T04:41:45;100190;;;
74485;BMP280;62942;52.462;10.846;2022-09-09T04:42:57;100200;;;
74485;BMP280;62942;52.462;10.846;2022-09-09T04:43:55;100210;;;
74485;BMP280;62942;52.462;10.846;2022-09-09T04:45:06;100200;;;
74485;BMP280;62942;52.462;10.846;2022-09-09T04:46:15;100210;;;
74485;BMP280;62942;52.462;10.846;2022-09-09T04:47:25;100200;;;
74485;BMP280;62942;52.462;10.846;2022-09-09T04:48:35;100210;;;
74485;BMP280;62942;52.462;10.846;2022-09-09T04:49:45;100210;;;
74485;BMP280;62942;52.462;10.846;2022-09-09T04:50:53;100210;;;
74485;BMP280;62942;52.462;10.846;2022-09-09T04:51:55;100210;;;
74485;BMP280;62942;52.462;10.846;2022-09-09T04:53:05;100210;;;
74485;BMP280;62942;52.462;10.846;2022-09-09T04:54:15;100210;;;
74485;BMP280;62942;52.462;10.846;2022-09-09T04:55:15;100210;;;
74485;BMP280;62942;52.462;10.846;2022-09-09T04:56:25;100210;;;
74485;BMP280;62942;52.462;10.846;2022-09-09T04:57:35;100210;;;
74485;BMP280;62942;52.462;10.846;2022-09-09T04:58:36;100220;;;
74485;BMP280;62942;52.462;10.846;2022-09-09T04:59:45;100210;;;
74485;BMP280;62942;52.462;10.846;2022-09-09T05:00:45;100210;;;
74485;BMP280;62942;52.462;10.846;2022-09-09T05:01:55;100210;;;
74485;BMP280;62942;52.462;10.846;2022-09-09T05:02:55;100220;;;
74485;BMP280;62942;52.462;10.846;2022-09-09T05:04:05;100210;;;
74485;BMP280;62942;52.462;10.846;2022-09-09T05:05:06;100210;;;
74485;BMP280;62942;52.462;10.846;2022-09-09T05:06:16;100210;;;
74485;BMP280;62942;52.462;10.846;2022-09-09T05:07:15;100210;;;
74485;BMP280;62942;52.462;10.846;2022-09-09T05:08:25;100210;;;
74485;BMP280;62942;52.462;10.846;2022-09-09T05:09:25;100210;;;
74485;BMP280;62942;52.462;10.846;2022-09-09T05:10:36;100210;;;
74485;BMP280;62942;52.462;10.846;2022-09-09T05:11:35;100220;;;
74485;BMP280;62942;52.462;10.846;2022-09-09T05:12:51;100220;;;
74485;BMP280;62942;52.462;10.846;2022-09-09T05:13:55;100210;;;
74485;BMP280;62942;52.462;10.846;2022-09-09T05:14:55;100210;;;
74485;BMP280;62942;52.462;10.846;2022-09-09T05:16:05;100210;;;
74485;BMP280;62942;52.462;10.846;2022-09-09T05:17:15;100210;;;
74485;BMP280;62942;52.462;10.846;2022-09-09T05:18:15;100210;;;
74485;BMP280;62942;52.462;10.846;2022-09-09T05:19:25;100210;;;
74485;BMP280;62942;52.462;10.846;2022-09-09T05:20:25;100220;;;
74485;BMP280;62942;52.462;10.846;2022-09-09T05:21:35;100220;;;
74485;BMP280;62942;52.462;10.846;2022-09-09T05:22:35;100220;;;
74485;BMP280;62942;52.462;10.846;2022-09-09T05:23:45;100220;;;
74485;BMP280;62942;52.462;10.846;2022-09-09T05:24:45;100220;;;
74485;BMP280;62942;52.462;10.846;2022-09-09T05:25:55;100220;;;
74485;BMP280;62942;52.462;10.846;2022-09-09T05:26:55;100220;;;
74485;BMP280;62942;52.462;10.846;2022-09-09T05:28:05;100220;;;
74485;BMP280;62942;52.462;10.846;2022-09-09T05:29:05;100220;;;
74485;BMP280;62942;52.462;10.846;2022-09-09T05:30:15;100220;;;
74485;BMP280;62942;52.462;10.846;2022-09-09T05:31:25;100220;;;
74485;BMP280;62942;52.462;10.846;2022-09-09T05:32:35;100230;;;
74485;BMP280;62942;52.462;10.846;2022-09-09T05:33:35;100230;;;
74485;BMP280;62942;52.462;10.846;2022-09-09T05:34:45;100230;;;
74485;BMP280;62942;52.462;10.846;2022-09-09T05:35:57;100220;;;
74485;BMP280;62942;52.462;10.846;2022-09-09T05:37:05;100220;;;
74485;BMP280;62942;52.462;10.846;2022-09-09T05:38:15;100220;;;
74485;BMP280;62942;52.462;10.846;2022-09-09T05:39:25;100230;;;
74485;BMP280;62942;52.462;10.846;2022-09-09T05:40:25;100230;;;
74485;BMP280;62942;52.462;10.846;2022-09-09T05:41:35;100230;;;
74485;BMP280;62942;52.462;10.846;2022-09-09T05:42:45;100220;;;
74485;BMP280;62942;52.462;10.846;2022-09-09T05:43:55;100220;;;
74485;BMP280;62942;52.462;10.846;2022-09-09T05:44:55;100220;;;
74485;BMP280;62942;52.462;10.846;2022-09-09T05:46:06;100220;;;
74485;BMP280;62942;52.462;10.846;2022-09-09T05:47:15;100220;;;
74485;BMP280;62942;52.462;10.846;2022-09-09T05:48:15;100230;;;
74485;BMP280;62942;52.462;10.846;2022-09-09T05:49:15;100230;;;
74485;BMP280;62942;52.462;10.846;2022-09-09T05:50:25;100230;;;
74485;BMP280;62942;52.462;10.846;2022-09-09T05:51:26;100240;;;
74485;BMP280;62942;52.462;10.846;2022-09-09T05:52:35;100230;;;
74485;BMP280;62942;52.462;10.846;2022-09-09T05:53:45;100230;;;
74485;BMP280;62942;52.462;10.846;2022-09-09T05:54:55;100240;;;
74485;BMP280;62942;52.462;10.846;2022-09-09T05:56:06;100240;;;
74485;BMP280;62942;52.462;10.846;2022-09-09T05:57:05;100230;;;
74485;BMP280;62942;52.462;10.846;2022-09-09T05:58:15;100240;;;
74485;BMP280;62942;52.462;10.846;2022-09-09T05:59:25;100240;;;
74485;BMP280;62942;52.462;10.846;2022-09-09T06:00:35;100240;;;
74485;BMP280;62942;52.462;10.846;2022-09-09T06:01:45;100240;;;
74485;BMP280;62942;52.462;10.846;2022-09-09T06:02:55;100240;;;
74485;BMP280;62942;52.462;10.846;2022-09-09T06:04:05;100240;;;
74485;BMP280;62942;52.462;10.846;2022-09-09T06:05:15;100240;;;
74485;BMP280;62942;52.462;10.846;2022-09-09T06:06:26;100240;;;
74485;BMP280;62942;52.462;10.846;2022-09-09T06:07:25;100250;;;
74485;BMP280;62942;52.462;10.846;2022-09-09T06:08:36;100240;;;
74485;BMP280;62942;52.462;10.846;2022-09-09T06:09:35;100250;;;
74485;BMP280;62942;52.462;10.846;2022-09-09T06:10:45;100250;;;
74485;BMP280;62942;52.462;10.846;2022-09-09T06:11:45;100250;;;
74485;BMP280;62942;52.462;10.846;2022-09-09T06:12:55;100250;;;
74485;BMP280;62942;52.462;10.846;2022-09-09T06:13:55;100250;;;
74485;BMP280;62942;52.462;10.846;2022-09-09T06:15:05;100260;;;
74485;BMP280;62942;52.462;10.846;2022-09-09T06:16:05;100250;;;
74485;BMP280;62942;52.462;10.846;2022-09-09T06:17:15;100260;;;
74485;BMP280;62942;52.462;10.846;2022-09-09T06:18:25;100250;;;
74485;BMP280;62942;52.462;10.846;2022-09-09T06:19:35;100250;;;
74485;BMP280;62942;52.462;10.846;2022-09-09T06:20:35;100250;;;
74485;BMP280;62942;52.462;10.846;2022-09-09T06:21:45;100250;;;
74485;BMP280;62942;52.462;10.846;2022-09-09T06:22:55;100250;;;
74485;BMP280;62942;52.462;10.846;2022-09-09T06:24:05;100250;;;
74485;BMP280;62942;52.462;10.846;2022-09-09T06:25:15;100250;;;
74485;BMP280;62942;52.462;10.846;2022-09-09T06:26:26;100250;;;
74485;BMP280;62942;52.462;10.846;2022-09-09T06:27:26;100250;;;
74485;BMP280;62942;52.462;10.846;2022-09-09T06:28:25;100240;;;
74485;BMP280;62942;52.462;10.846;2022-09-09T06:29:35;100240;;;
74485;BMP280;62942;52.462;10.846;2022-09-09T06:30:45;100250;;;
74485;BMP280;62942;52.462;10.846;2022-09-09T06:31:45;100250;;;
74485;BMP280;62942;52.462;10.846;2022-09-09T06:32:45;100250;;;
74485;BMP280;62942;52.462;10.846;2022-09-09T06:33:56;100250;;;
74485;BMP280;62942;52.462;10.846;2022-09-09T06:34:55;100260;;;
74485;BMP280;62942;52.462;10.846;2022-09-09T06:35:55;100260;;;
74485;BMP280;62942;52.462;10.846;2022-09-09T06:36:55;100260;;;
74485;BMP280;62942;52.462;10.846;2022-09-09T06:38:05;100250;;;
74485;BMP280;62942;52.462;10.846;2022-09-09T06:39:15;100240;;;
74485;BMP280;62942;52.462;10.846;2022-09-09T06:40:25;100240;;;
74485;BMP280;62942;52.462;10.846;2022-09-09T06:41:35;100250;;;
74485;BMP280;62942;52.462;10.846;2022-09-09T06:42:45;100260;;;
74485;BMP280;62942;52.462;10.846;2022-09-09T06:43:55;100260;;;
74485;BMP280;62942;52.462;10.846;2022-09-09T06:45:05;100260;;;
74485;BMP280;62942;52.462;10.846;2022-09-09T06:46:16;100260;;;
74485;BMP280;62942;52.462;10.846;2022-09-09T06:47:15;100260;;;
74485;BMP280;62942;52.462;10.846;2022-09-09T06:48:25;100270;;;
74485;BMP280;62942;52.462;10.846;2022-09-09T06:49:35;100260;;;
74485;BMP280;62942;52.462;10.846;2022-09-09T06:50:35;100270;;;
74485;BMP280;62942;52.462;10.846;2022-09-09T06:51:45;100260;;;
74485;BMP280;62942;52.462;10.846;2022-09-09T06:52:45;100260;;;
74485;BMP280;62942;52.462;10.846;2022-09-09T06:53:56;100260;;;
74485;BMP280;62942;52.462;10.846;2022-09-09T06:54:55;100260;;;
74485;BMP280;62942;52.462;10.846;2022-09-09T06:56:17;100260;;;
74485;BMP280;62942;52.462;10.846;2022-09-09T06:57:15;100260;;;
74485;BMP280;62942;52.462;10.846;2022-09-09T06:58:15;100260;;;
74485;BMP280;62942;52.462;10.846;2022-09-09T06:59:25;100260;;;
74485;BMP280;62942;52.462;10.846;2022-09-09T07:00:25;100260;;;